Flight Track Log - Related Links

Times and Time Zones

All times are in EDT time to prevent confusion due to time zone crossing. See the N307TS flight status page for this flight to view local times or setup timezone preferences in your user account.

Time Position Orientation Groundspeed Altitude Reporting Facility
EDT Latitude Longitude Course Direction KTS MPH feet Rate Location/Type
Wed 03:37:00 PM 44.0808 -103.1525 296° West 169 194 5,700  Level Denver Center
Wed 03:38:25 PM 44.1106 -103.2386 296° West 168 193 7,900 1,373 Climbing Denver Center
Wed 03:38:58 PM 44.1217 -103.2661 299° West 134 154 8,400 1,100 Climbing Denver Center
Wed 03:39:25 PM 44.1314 -103.2947 295° West 174 200 9,000 1,258 Climbing Denver Center
Wed 03:40:00 PM 44.1422 -103.3239 297° West 167 192 9,700 1,418 Climbing Denver Center
Wed 03:40:20 PM 44.1525 -103.3536 296° West 180 207 10,300 1,355 Climbing Denver Center
Wed 03:41:02 PM 44.1675 -103.3947 297° West 175 201 11,100 1,200 Climbing Denver Center
Wed 03:41:20 PM 44.1722 -103.4161 287° West 180 207 11,500 1,161 Climbing Denver Center
Wed 03:42:04 PM 44.1886 -103.4547 301° West 175 201 12,300 1,245 Climbing Denver Center
Wed 03:43:06 PM 44.2133 -103.5231 297° West 176 203 13,700 1,258 Climbing Denver Center
Wed 03:44:08 PM 44.2344 -103.5853 295° West 179 206 14,900 1,306 Climbing Denver Center
Wed 03:45:10 PM 44.2597 -103.6586 296° West 181 208 16,400 1,306 Climbing Denver Center
Wed 03:46:12 PM 44.2819 -103.7228 296° West 185 213 17,600 1,452 Climbing Denver Center
Wed 03:47:14 PM 44.3036 -103.7836 296° West 185 213 19,400 1,161 Climbing Denver Center
Wed 03:48:16 PM 44.3294 -103.8617 295° West 194 223 20,000 293 Climbing Denver Center
Wed 03:49:17 PM 44.3556 -103.9383 295° West 217 250 20,000  Level Denver Center
Wed 03:50:19 PM 44.3883 -104.0347 295° West 239 275 20,000  Level Denver Center
Wed 03:51:21 PM 44.4178 -104.1172 297° West 244 281 20,000  Level Denver Center
Wed 03:52:23 PM 44.4508 -104.2119 296° West 244 281 20,000  Level Denver Center
Wed 03:53:25 PM 44.4778 -104.2936 295° West 244 281 20,000 48 Level Denver Center
Wed 03:54:27 PM 44.5106 -104.3892 296° West 244 281 20,100 387 Climbing Denver Center
Wed 03:55:29 PM 44.5369 -104.4658 296° West 240 276 20,800 677 Climbing Denver Center
Wed 03:56:31 PM 44.5658 -104.5542 295° West 228 262 21,500 581 Climbing Denver Center
Wed 03:57:33 PM 44.5908 -104.6283 295° West 224 258 22,000 242 Climbing Denver Center
Wed 03:58:35 PM 44.6178 -104.7072 296° West 229 264 22,000  Level Denver Center
Wed 03:59:37 PM 44.6500 -104.8053 295° West 243 280 22,000  Level Denver Center
Wed 04:00:39 PM 44.6775 -104.8892 295° West 245 282 22,000  Level Denver Center
Wed 04:01:40 PM 44.7108 -104.9864 296° West 246 283 22,000  Level Denver Center
Wed 04:02:42 PM 44.7372 -105.0719 293° West 247 284 22,000  Level Denver Center
Wed 04:03:44 PM 44.7697 -105.1656 296° West 249 287 22,000  Level Denver Center
Wed 04:04:46 PM 44.7967 -105.2544 293° West 249 287 22,000  Level Denver Center
Wed 04:05:48 PM 44.8267 -105.3419 296° West 249 287 22,000  Level Denver Center
Wed 04:06:49 PM 44.8553 -105.4294 295° West 249 287 22,000  Level Denver Center
Wed 04:07:51 PM 44.8908 -105.5356 295° West 249 287 22,000  Level Denver Center
Wed 04:08:53 PM 44.9192 -105.6253 294° West 249 287 22,000  Level Denver Center
Wed 04:09:54 PM 44.9467 -105.7156 293° West 249 287 22,000  Level Denver Center
Wed 04:10:56 PM 44.9761 -105.8039 295° West 249 287 22,000  Level Denver Center
Wed 04:11:58 PM 45.0042 -105.8922 294° West 249 287 22,000  Level Denver Center
Wed 04:13:00 PM 45.0322 -105.9817 294° West 249 287 22,000  Level Denver Center
Wed 04:14:02 PM 45.0611 -106.0697 295° West 249 287 22,000  Level Denver Center
Wed 04:15:22 PM 45.1022 -106.1936 295° West 249 287 22,000  Level Salt Lake Center
Wed 04:16:23 PM 45.1283 -106.2817 293° West 249 287 22,000  Level Salt Lake Center
Wed 04:17:25 PM 45.1533 -106.3703 292° West 247 284 22,000  Level Salt Lake Center
Wed 04:18:26 PM 45.1908 -106.4781 296° West 247 284 22,000  Level Salt Lake Center
Wed 04:19:28 PM 45.2183 -106.5678 294° West 247 284 22,000  Level Salt Lake Center
Wed 04:20:29 PM 45.2447 -106.6564 293° West 247 284 22,000  Level Salt Lake Center
Wed 04:21:31 PM 45.2708 -106.7444 293° West 247 284 22,000  Level Salt Lake Center
Wed 04:22:32 PM 45.2989 -106.8336 294° West 247 284 22,000  Level Salt Lake Center
Wed 04:23:34 PM 45.3264 -106.9231 294° West 247 284 22,000 -98 Level Salt Lake Center
Wed 04:24:35 PM 45.3539 -107.0125 294° West 247 284 21,800 -393 Descending Salt Lake Center
Wed 04:25:36 PM 45.3825 -107.1028 294° West 247 284 21,200 -683 Descending Salt Lake Center
Wed 04:26:38 PM 45.4167 -107.2161 293° West 253 291 20,400 -780 Descending Salt Lake Center
Wed 04:27:39 PM 45.4456 -107.3144 293° West 262 302 19,600 -780 Descending Salt Lake Center
Wed 04:28:41 PM 45.4736 -107.4086 293° West 262 302 18,800 -976 Descending Salt Lake Center
Wed 04:29:42 PM 45.5017 -107.5017 293° West 260 299 17,600 -976 Descending Salt Lake Center
Wed 04:30:44 PM 45.5317 -107.6000 294° West 259 298 16,800 -780 Descending Salt Lake Center
Wed 04:31:45 PM 45.5611 -107.7011 293° West 259 298 16,000 -829 Descending Salt Lake Center
Wed 04:32:47 PM 45.5894 -107.7956 293° West 260 299 15,100 -780 Descending Salt Lake Center
Wed 04:33:48 PM 45.6200 -107.8994 293° West 263 303 14,400 -976 Descending Salt Lake Center
Wed 04:34:50 PM 45.6481 -107.9953 293° West 264 304 13,100 -1,355 Descending Salt Lake Center
Wed 04:35:52 PM 45.6756 -108.0892 293° West 263 303 11,600 -1,512 Descending Salt Lake Center
Wed 04:36:53 PM 45.7053 -108.1903 293° West 258 297 10,000 -1,512 Descending Salt Lake Center
Wed 04:37:55 PM 45.7322 -108.2828 293° West 258 297 8,500 -1,805 Descending Salt Lake Center
Wed 04:38:56 PM 45.7611 -108.3814 293° West 252 290 6,300 -1,756 Descending Salt Lake Center
Wed 04:39:58 PM 45.7825 -108.4681 290° West 232 267 4,900 -1,113 Descending Salt Lake Center
Wed 04:41:00 PM 45.7989 -108.5258 292° West 141 162 4,000 -871 Descending Salt Lake Center
Wed 04:42:00 PM 45.8000 -108.5333 290° West  Level FlightAware Approximate
Wed 04:49:00 PM 45.8077 -108.5429 290° West  Level Estimated

Login

Don't have an account? Register now (free) for customized features, flight alerts, and more!